Time;durP1;ratioP1;P1;durP2;ratioP2;P2;SDS_P1;SDS_P2;PMS_P1;PMS_P2;Temp;Humidity;BMP_temperature;BMP_pressure;BME280_temperature;BME280_humidity;BME280_pressure;Samples;Min_cycle;Max_cycle;Signal;HPM_P1;HPM_P2
2023/05/30 00:02:06;;;;;;;17.85;11.95;;;;;;;15.70;nan;100435.06;5057374;28;20438;-77
2023/05/30 00:04:31;;;;;;;20.15;11.85;;;;;;;15.68;nan;100426.56;5060598;28;20390;-78
2023/05/30 00:06:57;;;;;;;17.13;10.55;;;;;;;15.64;nan;100422.03;5058707;28;20032;-77
2023/05/30 00:09:23;;;;;;;19.38;11.35;;;;;;;15.63;nan;100412.44;5059742;28;20663;-77
2023/05/30 00:11:49;;;;;;;19.20;11.68;;;;;;;15.76;nan;100432.47;5059124;28;20060;-77
2023/05/30 00:14:20;;;;;;;21.92;11.30;;;;;;;15.68;nan;100415.94;5062741;28;20024;-77
2023/05/30 00:16:46;;;;;;;20.73;11.45;;;;;;;15.69;nan;100422.84;5060618;28;20040;-77
2023/05/30 00:19:11;;;;;;;16.15;11.98;;;;;;;15.69;nan;100425.50;5060226;28;20033;-77
2023/05/30 00:21:37;;;;;;;21.25;11.90;;;;;;;15.67;nan;100421.50;5066527;28;20432;-77
2023/05/30 00:24:04;;;;;;;19.55;11.95;;;;;;;15.61;nan;100411.91;5064379;28;20245;-77
2023/05/30 00:26:30;;;;;;;19.33;12.35;;;;;;;15.72;nan;100430.31;5053224;28;20031;-77
2023/05/30 00:28:56;;;;;;;16.88;11.48;;;;;;;15.71;nan;100434.03;5062616;28;20029;-77
2023/05/30 00:31:21;;;;;;;15.10;10.73;;;;;;;15.71;nan;100434.03;5061859;28;20536;-77
2023/05/30 00:33:46;;;;;;;16.13;10.32;;;;;;;15.65;nan;100437.66;5043557;28;20082;-76
2023/05/30 00:36:12;;;;;;;14.20;9.85;;;;;;;15.58;nan;100431.78;5063348;28;20600;-76
2023/05/30 00:38:39;;;;;;;16.20;10.63;;;;;;;15.57;nan;100437.38;5063056;28;20025;-76
2023/05/30 00:41:05;;;;;;;19.17;9.98;;;;;;;15.43;nan;100427.19;5062680;28;20675;-77
2023/05/30 00:43:30;;;;;;;14.00;10.02;;;;;;;15.50;nan;100434.94;5050068;28;20025;-77
2023/05/30 00:45:56;;;;;;;13.98;9.75;;;;;;;15.48;nan;100445.81;5045208;28;20058;-76
2023/05/30 00:48:22;;;;;;;19.25;10.40;;;;;;;15.47;nan;100443.44;5062612;28;20827;-76
2023/05/30 00:50:49;;;;;;;13.05;9.30;;;;;;;15.39;nan;100435.94;5059672;28;20059;-76
2023/05/30 00:53:16;;;;;;;18.17;9.27;;;;;;;15.43;nan;100445.78;5061414;28;20029;-76
2023/05/30 00:55:41;;;;;;;21.30;9.68;;;;;;;15.39;nan;100446.53;5058710;28;20178;-77
2023/05/30 00:58:07;;;;;;;19.35;10.07;;;;;;;15.34;nan;100435.91;5059834;28;20102;-76
2023/05/30 01:00:37;;;;;;;14.10;9.23;;;;;;;15.38;nan;100448.41;5061634;28;20029;-77
2023/05/30 01:03:03;;;;;;;19.15;9.98;;;;;;;15.36;nan;100445.19;5052609;28;20037;-75
2023/05/30 01:05:28;;;;;;;17.17;10.00;;;;;;;15.31;nan;100431.91;5060955;28;20088;-77
2023/05/30 01:07:54;;;;;;;13.95;9.55;;;;;;;15.37;nan;100436.19;5052512;28;20161;-77
2023/05/30 01:10:20;;;;;;;21.33;10.40;;;;;;;15.27;nan;100436.91;5060038;28;20025;-77
2023/05/30 01:13:28;;;;;;;15.70;10.98;;;;;;;15.40;nan;100450.81;5065143;28;20512;-76
2023/05/30 01:16:00;;;;;;;15.02;9.82;;;;;;;15.30;nan;100431.13;4952824;28;20041;-79
2023/05/30 01:18:52;;;;;;;22.65;10.55;;;;;;;15.34;nan;100444.66;4961875;28;20125;-78
2023/05/30 01:21:20;;;;;;;15.45;9.98;;;;;;;15.32;nan;100436.16;4966279;28;20062;-78
2023/05/30 01:24:06;;;;;;;20.90;10.40;;;;;;;15.27;nan;100436.13;4962924;28;20046;-78
2023/05/30 01:26:39;;;;;;;17.08;10.20;;;;;;;15.38;nan;100451.06;4951223;28;20074;-78
2023/05/30 01:29:06;;;;;;;16.35;10.63;;;;;;;15.13;nan;100411.88;4964797;28;20031;-78
2023/05/30 01:31:33;;;;;;;21.98;11.10;;;;;;;15.30;nan;100448.88;4967564;28;20035;-77
2023/05/30 01:34:00;;;;;;;20.17;10.75;;;;;;;15.04;nan;100400.94;4965037;28;20532;-77
2023/05/30 01:36:28;;;;;;;15.93;10.48;;;;;;;15.22;nan;100428.91;4961951;28;20520;-77
2023/05/30 01:38:54;;;;;;;18.40;12.10;;;;;;;15.21;nan;100429.97;4964961;28;20026;-76
2023/05/30 01:41:29;;;;;;;21.08;11.25;;;;;;;15.20;nan;100438.97;4963589;28;20109;-78
2023/05/30 01:43:54;;;;;;;17.88;11.18;;;;;;;15.20;nan;100444.28;4964535;28;20632;-78
2023/05/30 01:46:23;;;;;;;17.33;11.25;;;;;;;15.18;nan;100442.94;4966418;28;20045;-77
2023/05/30 01:48:51;;;;;;;22.88;11.85;;;;;;;15.16;nan;100445.88;4966088;28;20030;-77
2023/05/30 01:51:22;;;;;;;19.60;11.60;;;;;;;15.22;nan;100449.34;5042552;28;20037;-77
2023/05/30 01:53:56;;;;;;;22.65;11.35;;;;;;;15.14;nan;100426.75;5059467;28;20021;-76
2023/05/30 01:56:23;;;;;;;21.13;12.38;;;;;;;15.20;nan;100436.31;5056943;28;20049;-78
2023/05/30 01:58:51;;;;;;;20.23;11.68;;;;;;;15.26;nan;100434.53;5062303;28;20028;-77
2023/05/30 02:01:19;;;;;;;18.17;11.65;;;;;;;15.30;nan;100435.63;5058072;28;20021;-78
2023/05/30 02:03:47;;;;;;;16.70;10.73;;;;;;;15.30;nan;100440.94;5061039;28;20060;-77
2023/05/30 02:06:12;;;;;;;20.98;11.90;;;;;;;15.22;nan;100420.97;5060411;28;20111;-78
2023/05/30 02:08:38;;;;;;;21.40;11.07;;;;;;;15.14;nan;100413.50;5060846;28;20108;-77
2023/05/30 02:11:03;;;;;;;16.05;10.20;;;;;;;15.27;nan;100428.16;5058628;28;20024;-77
2023/05/30 02:13:29;;;;;;;17.77;10.63;;;;;;;15.30;nan;100428.47;5058215;28;20025;-77
2023/05/30 02:15:54;;;;;;;20.85;10.90;;;;;;;15.22;nan;100413.00;5062324;28;20013;-76
2023/05/30 02:18:20;;;;;;;16.70;11.35;;;;;;;15.26;nan;100418.59;5043557;28;20083;-78
2023/05/30 02:20:45;;;;;;;19.42;11.32;;;;;;;15.30;nan;100432.97;5061061;28;20029;-77
2023/05/30 02:23:11;;;;;;;17.70;11.00;;;;;;;15.35;nan;100438.31;5057630;28;20021;-78
2023/05/30 02:25:36;;;;;;;17.30;10.70;;;;;;;15.29;nan;100426.84;5057258;28;20036;-78
2023/05/30 02:28:02;;;;;;;19.27;11.68;;;;;;;15.30;nan;100438.28;5060266;28;20037;-77
2023/05/30 02:30:27;;;;;;;18.27;10.73;;;;;;;15.30;nan;100446.25;5058110;28;20071;-76
2023/05/30 02:32:53;;;;;;;19.50;11.10;;;;;;;15.17;nan;100425.44;5042521;28;20024;-76
2023/05/30 02:35:18;;;;;;;19.67;12.10;;;;;;;15.30;nan;100447.03;5057010;28;20033;-76
2023/05/30 02:37:45;;;;;;;20.42;11.68;;;;;;;15.29;nan;100442.75;5055921;28;20021;-77
2023/05/30 02:40:11;;;;;;;19.48;10.80;;;;;;;15.27;nan;100442.22;5060963;28;20718;-77
2023/05/30 02:42:36;;;;;;;22.25;11.90;;;;;;;15.32;nan;100447.56;5055377;28;20166;-77
2023/05/30 02:45:03;;;;;;;22.40;11.75;;;;;;;15.35;nan;100448.09;5060582;28;20119;-77
2023/05/30 02:47:28;;;;;;;20.45;11.93;;;;;;;15.32;nan;100441.44;5060055;28;20055;-76
2023/05/30 02:49:53;;;;;;;19.80;11.77;;;;;;;15.28;nan;100438.53;5062913;28;20086;-76
2023/05/30 02:52:19;;;;;;;21.67;11.57;;;;;;;15.29;nan;100445.41;5058356;28;20025;-76
2023/05/30 02:54:46;;;;;;;20.48;11.50;;;;;;;15.21;nan;100437.94;5060076;28;21186;-77
2023/05/30 02:57:12;;;;;;;25.00;12.15;;;;;;;15.17;nan;100434.19;5043630;28;20390;-77
2023/05/30 02:59:37;;;;;;;20.90;11.50;;;;;;;15.15;nan;100428.34;5044961;28;20043;-77
2023/05/30 03:02:03;;;;;;;20.05;12.05;;;;;;;15.15;nan;100427.53;5059764;28;20032;-77
2023/05/30 03:04:29;;;;;;;17.02;11.93;;;;;;;15.23;nan;100438.50;5059847;28;20474;-77
2023/05/30 03:06:55;;;;;;;22.00;12.15;;;;;;;15.14;nan;100432.06;5057237;28;20048;-77
2023/05/30 03:09:21;;;;;;;24.85;11.77;;;;;;;15.19;nan;100428.63;5046802;28;20074;-74
2023/05/30 03:11:47;;;;;;;17.80;11.23;;;;;;;15.18;nan;100434.97;5056420;28;20032;-75
2023/05/30 03:14:12;;;;;;;19.20;11.40;;;;;;;15.16;nan;100423.84;5057536;28;20689;-74
2023/05/30 03:16:43;;;;;;;23.40;11.27;;;;;;;15.19;nan;100426.00;5042175;28;20063;-77
2023/05/30 03:19:08;;;;;;;15.00;10.45;;;;;;;15.16;nan;100427.31;5058256;28;20128;-77
2023/05/30 03:21:36;;;;;;;18.10;11.57;;;;;;;15.20;nan;100438.19;5055460;28;20454;-77
2023/05/30 03:24:02;;;;;;;23.08;11.35;;;;;;;15.16;nan;100445.88;5057924;28;20094;-74
2023/05/30 03:26:27;;;;;;;22.00;12.10;;;;;;;15.10;nan;100452.16;5060530;28;20056;-77
2023/05/30 03:28:53;;;;;;;19.73;11.55;;;;;;;15.07;nan;100447.38;5045987;28;20039;-77
2023/05/30 03:31:18;;;;;;;21.77;10.90;;;;;;;14.96;nan;100427.94;5060462;28;20441;-77
2023/05/30 03:33:44;;;;;;;20.92;11.77;;;;;;;15.05;nan;100454.78;5055631;28;20097;-77
2023/05/30 03:36:10;;;;;;;18.95;11.05;;;;;;;15.08;nan;100449.78;5059522;28;20627;-77
2023/05/30 03:38:36;;;;;;;19.63;10.95;;;;;;;15.06;nan;100461.69;5056367;28;20032;-78
2023/05/30 03:41:02;;;;;;;17.55;10.32;;;;;;;15.06;nan;100459.84;5058678;28;20113;-77
2023/05/30 03:43:27;;;;;;;19.23;10.40;;;;;;;14.95;nan;100450.19;5045987;28;20448;-77
2023/05/30 03:45:52;;;;;;;23.48;10.15;;;;;;;15.05;nan;100468.03;5042035;28;20443;-76
2023/05/30 03:48:18;;;;;;;20.95;9.32;;;;;;;14.97;nan;100458.72;5062848;28;20032;-76
2023/05/30 03:50:43;;;;;;;17.65;9.82;;;;;;;15.05;nan;100479.44;5061712;28;20040;-77
2023/05/30 03:53:08;;;;;;;20.55;9.52;;;;;;;15.00;nan;100473.31;5047198;28;20170;-78
2023/05/30 03:55:34;;;;;;;15.40;9.30;;;;;;;14.97;nan;100473.81;5059467;28;20517;-74
2023/05/30 03:57:59;;;;;;;16.30;9.50;;;;;;;15.01;nan;100481.03;5059095;28;20036;-77
2023/05/30 04:00:25;;;;;;;13.27;9.10;;;;;;;15.01;nan;100477.56;5062411;28;20046;-77
2023/05/30 04:02:50;;;;;;;14.02;10.05;;;;;;;15.04;nan;100480.50;5047974;28;20049;-77
2023/05/30 04:05:17;;;;;;;14.13;9.15;;;;;;;15.02;nan;100484.47;5063257;28;20046;-77
2023/05/30 04:07:43;;;;;;;17.88;10.02;;;;;;;15.03;nan;100486.06;5064779;28;20060;-77
2023/05/30 04:10:09;;;;;;;15.23;9.77;;;;;;;15.05;nan;100486.59;5046740;28;20071;-77
2023/05/30 04:12:34;;;;;;;20.02;10.07;;;;;;;15.00;nan;100474.09;5066597;28;20021;-77
2023/05/30 04:15:03;;;;;;;16.92;10.18;;;;;;;14.98;nan;100473.56;5061692;28;20025;-77
2023/05/30 04:17:45;;;;;;;15.52;8.70;;;;;;;15.01;nan;100478.38;5062835;28;20107;-75
2023/05/30 04:20:11;;;;;;;13.07;9.38;;;;;;;14.94;nan;100469.81;5054948;28;20035;-76
2023/05/30 04:22:36;;;;;;;17.75;9.05;;;;;;;14.98;nan;100470.09;5061389;28;20178;-76
2023/05/30 04:25:02;;;;;;;18.05;8.90;;;;;;;14.99;nan;100482.31;5058961;28;20554;-76
2023/05/30 04:27:28;;;;;;;12.55;8.27;;;;;;;15.03;nan;100488.72;5058778;28;20033;-76
2023/05/30 04:29:53;;;;;;;17.60;9.55;;;;;;;15.13;nan;100507.34;5060658;28;20062;-77
2023/05/30 04:32:19;;;;;;;25.58;9.40;;;;;;;15.10;nan;100489.31;5039426;28;20029;-77
2023/05/30 04:34:45;;;;;;;15.70;9.20;;;;;;;15.05;nan;100476.00;5062700;28;20081;-76
2023/05/30 04:37:12;;;;;;;15.07;8.77;;;;;;;15.15;nan;100494.66;5057447;28;20085;-77
2023/05/30 04:39:38;;;;;;;14.85;9.38;;;;;;;15.09;nan;100475.25;5048153;28;20036;-77
2023/05/30 04:42:04;;;;;;;19.10;9.50;;;;;;;15.17;nan;100491.75;5058651;28;20077;-76
2023/05/30 04:44:37;;;;;;;17.55;9.20;;;;;;;15.19;nan;100485.13;5056433;28;20032;-73
2023/05/30 04:47:05;;;;;;;15.70;9.07;;;;;;;15.16;nan;100476.91;5049234;28;20032;-73
2023/05/30 04:49:30;;;;;;;19.88;9.50;;;;;;;15.15;nan;100475.28;5046544;28;20028;-73
2023/05/30 04:51:56;;;;;;;17.85;9.25;;;;;;;15.23;nan;100478.28;5058952;28;20451;-72
2023/05/30 04:54:22;;;;;;;17.75;9.27;;;;;;;15.31;nan;100484.97;5061127;28;20539;-72
2023/05/30 04:56:47;;;;;;;14.20;8.90;;;;;;;15.26;nan;100471.66;5053644;28;20045;-73
2023/05/30 04:59:12;;;;;;;19.60;8.80;;;;;;;15.32;nan;100481.25;5060719;28;20115;-73
2023/05/30 05:01:41;;;;;;;16.42;8.32;;;;;;;15.36;nan;100478.91;5058362;28;20174;-76
2023/05/30 05:04:06;;;;;;;15.75;7.75;;;;;;;15.32;nan;100491.84;5059579;28;20029;-76
2023/05/30 05:06:32;;;;;;;14.43;7.40;;;;;;;15.30;nan;100478.88;5041046;28;20027;-76
2023/05/30 05:08:57;;;;;;;14.02;7.30;;;;;;;15.38;nan;100490.06;5045775;28;20028;-72
2023/05/30 05:11:22;;;;;;;11.95;7.85;;;;;;;15.25;nan;100475.34;5061083;28;20024;-73
2023/05/30 05:13:48;;;;;;;10.73;7.68;;;;;;;15.40;nan;100496.72;5060328;28;20032;-73
2023/05/30 05:16:13;;;;;;;12.43;7.15;;;;;;;15.44;nan;100497.00;5058513;28;20115;-72
2023/05/30 05:18:38;;;;;;;14.60;7.65;;;;;;;15.43;nan;100479.47;5058873;28;20058;-76
2023/05/30 05:21:06;;;;;;;16.30;8.30;;;;;;;15.47;nan;100477.94;5057995;28;20032;-76
2023/05/30 05:23:31;;;;;;;12.48;8.10;;;;;;;15.53;nan;100483.00;5057801;28;20077;-77
2023/05/30 05:25:57;;;;;;;12.25;7.88;;;;;;;15.53;nan;100485.66;5056719;28;20028;-78
2023/05/30 05:28:22;;;;;;;13.10;7.55;;;;;;;15.48;nan;100482.97;5037984;28;20724;-77
2023/05/30 05:30:48;;;;;;;17.08;7.68;;;;;;;15.53;nan;100485.66;5054360;28;20033;-76
2023/05/30 05:33:15;;;;;;;11.43;7.43;;;;;;;15.53;nan;100488.28;5060688;28;20102;-76
2023/05/30 05:35:40;;;;;;;11.52;7.43;;;;;;;15.52;nan;100486.72;5057937;28;20032;-78
2023/05/30 05:38:06;;;;;;;16.13;7.55;;;;;;;15.48;nan;100474.22;5062060;28;20028;-78
2023/05/30 05:40:31;;;;;;;11.32;7.85;;;;;;;15.60;nan;100492.59;5060415;28;20116;-77
2023/05/30 05:42:57;;;;;;;16.73;7.47;;;;;;;15.63;nan;100492.88;5057753;28;20060;-77
2023/05/30 05:45:22;;;;;;;13.82;7.13;;;;;;;15.69;nan;100499.81;5056738;28;20065;-76
2023/05/30 05:47:47;;;;;;;13.20;7.45;;;;;;;15.84;nan;100503.66;5040704;28;20436;-77
2023/05/30 05:50:13;;;;;;;18.55;7.90;;;;;;;15.90;nan;100497.34;5057010;28;20021;-78
2023/05/30 05:52:38;;;;;;;14.77;7.82;;;;;;;16.02;nan;100497.09;5056702;28;20066;-76
2023/05/30 05:55:04;;;;;;;13.80;7.50;;;;;;;16.06;nan;100492.88;5060973;28;20043;-76
2023/05/30 05:57:29;;;;;;;12.40;8.02;;;;;;;16.21;nan;100503.59;5056226;28;20186;-76
2023/05/30 05:59:55;;;;;;;18.42;8.52;;;;;;;16.24;nan;100504.91;5040276;28;20033;-77
2023/05/30 06:02:20;;;;;;;17.00;7.72;;;;;;;16.29;nan;100504.94;5060345;28;20063;-76
2023/05/30 06:04:47;;;;;;;13.57;8.52;;;;;;;16.33;nan;100508.69;5058377;28;20037;-76
2023/05/30 06:07:13;;;;;;;15.73;7.85;;;;;;;16.50;nan;100532.41;5058968;28;20021;-76
2023/05/30 06:09:38;;;;;;;23.67;8.75;;;;;;;;;;5057637;28;20499;-75
2023/05/30 06:12:05;;;;;;;13.57;7.70;;;;;;;16.59;nan;100533.47;5056842;28;20037;-74
2023/05/30 06:14:30;;;;;;;13.80;7.47;;;;;;;16.62;nan;100519.66;5057461;28;20755;-76
2023/05/30 06:16:55;;;;;;;15.35;7.10;;;;;;;16.65;nan;100524.44;5057566;28;20027;-76
2023/05/30 06:19:21;;;;;;;12.80;6.93;;;;;;;16.74;nan;100524.75;5055533;28;20031;-76
2023/05/30 06:21:46;;;;;;;12.43;6.85;;;;;;;;;;5058527;28;20027;-75
2023/05/30 06:24:11;;;;;;;14.23;7.70;;;;;;;;;;5056795;28;20123;-74
2023/05/30 06:26:37;;;;;;;12.57;7.27;;;;;;;;;;5055890;28;20277;-75
2023/05/30 06:29:02;;;;;;;13.90;7.37;;;;;;;;;;5054457;28;20032;-75
2023/05/30 06:31:27;;;;;;;9.75;6.70;;;;;;;;;;5060231;28;20766;-75
2023/05/30 06:33:52;;;;;;;9.77;7.30;;;;;;;;;;5057558;28;20112;-76
2023/05/30 06:36:18;;;;;;;14.93;7.50;;;;;;;;;;5056691;28;20028;-76
2023/05/30 06:38:43;;;;;;;13.25;7.25;;;;;;;;;;5057129;28;20909;-76
2023/05/30 06:41:08;;;;;;;10.70;6.90;;;;;;;17.16;nan;100481.97;5056149;28;20038;-76
2023/05/30 06:43:34;;;;;;;10.15;6.65;;;;;;;;;;5055657;28;20695;-76
2023/05/30 06:45:59;;;;;;;9.43;6.27;;;;;;;;;;5056423;28;20028;-78
2023/05/30 06:48:24;;;;;;;13.15;6.70;;;;;;;;;;5041267;28;20120;-76
2023/05/30 06:50:49;;;;;;;9.23;7.30;;;;;;;;;;5057871;28;20036;-75
2023/05/30 06:53:16;;;;;;;11.20;6.63;;;;;;;;;;5054180;28;20761;-75
2023/05/30 06:55:41;;;;;;;12.35;6.90;;;;;;;;;;5054785;28;20312;-78
2023/05/30 06:58:06;;;;;;;9.47;6.77;;;;;;;;;;5055382;28;20546;-76
2023/05/30 07:00:32;;;;;;;14.13;6.47;;;;;;;;;;5057949;28;20647;-76
2023/05/30 07:02:57;;;;;;;12.53;7.07;;;;;;;;;;5042942;28;20316;-76
2023/05/30 07:05:22;;;;;;;9.80;6.70;;;;;;;;;;5056813;28;20293;-75
2023/05/30 07:07:48;;;;;;;10.80;6.95;;;;;;;;;;5057561;28;20021;-75
2023/05/30 07:10:13;;;;;;;10.20;6.90;;;;;;;;;;5057321;28;20028;-76
2023/05/30 07:12:38;;;;;;;11.87;6.83;;;;;;;;;;5055522;28;20115;-76
2023/05/30 07:15:04;;;;;;;12.38;7.00;;;;;;;;;;5056876;28;20475;-75
2023/05/30 07:17:30;;;;;;;12.52;7.35;;;;;;;17.90;nan;100533.03;5057065;28;20120;-75
2023/05/30 07:19:55;;;;;;;10.55;7.50;;;;;;;;;;5056279;28;20032;-77
2023/05/30 07:22:20;;;;;;;11.30;6.60;;;;;;;;;;5055354;28;20487;-77
2023/05/30 07:24:45;;;;;;;22.47;7.73;;;;;;;;;;5054218;28;20273;-77
2023/05/30 07:27:11;;;;;;;12.80;7.67;;;;;;;17.90;nan;100434.47;5056333;28;20052;-77
2023/05/30 07:29:36;;;;;;;14.93;7.40;;;;;;;;;;5055853;28;20704;-77
2023/05/30 07:32:02;;;;;;;13.27;6.75;;;;;;;;;;5059585;28;20132;-77
2023/05/30 07:34:27;;;;;;;15.25;7.18;;;;;;;;;;5054810;28;20494;-77
2023/05/30 07:36:52;;;;;;;10.23;6.73;;;;;;;;;;5058598;28;20649;-77
2023/05/30 07:39:19;;;;;;;13.10;6.90;;;;;;;18.39;nan;100472.88;5044658;28;20367;-77
2023/05/30 07:41:44;;;;;;;10.52;6.55;;;;;;;18.44;nan;100496.88;5056195;28;20399;-75
2023/05/30 07:44:09;;;;;;;9.93;6.47;;;;;;;;;;5037337;28;20025;-74
2023/05/30 07:46:35;;;;;;;10.95;6.85;;;;;;;;;;5057837;28;20094;-74
2023/05/30 07:49:00;;;;;;;13.83;7.20;;;;;;;18.64;nan;100499.41;5056305;28;20020;-74
2023/05/30 07:51:25;;;;;;;19.08;11.55;;;;;;;18.63;nan;100471.16;5056162;28;20052;-74
2023/05/30 07:53:50;;;;;;;27.27;22.23;;;;;;;;;;5053734;28;20055;-74
2023/05/30 07:56:16;;;;;;;15.97;7.40;;;;;;;18.98;nan;100492.53;5054002;28;20510;-74
2023/05/30 07:58:41;;;;;;;12.10;7.30;;;;;;;18.87;nan;100495.28;5051902;28;20390;-74
2023/05/30 08:01:07;;;;;;;15.30;6.53;;;;;;;18.92;nan;100489.91;5053336;28;20146;-74
2023/05/30 08:03:32;;;;;;;16.48;6.80;;;;;;;;;;5056503;28;20020;-74
2023/05/30 08:05:57;;;;;;;13.27;6.73;;;;;;;;;;5041482;28;20033;-74
2023/05/30 08:08:22;;;;;;;14.03;6.80;;;;;;;19.03;nan;100476.50;5054914;28;20026;-74
2023/05/30 08:10:48;;;;;;;10.93;6.93;;;;;;;;;;5056036;28;20358;-75
2023/05/30 08:13:14;;;;;;;13.75;6.78;;;;;;;19.17;nan;100482.78;5052687;28;20028;-74
2023/05/30 08:15:39;;;;;;;10.65;6.43;;;;;;;;;;5052258;28;20031;-72
2023/05/30 08:18:05;;;;;;;13.93;7.05;;;;;;;19.29;nan;100488.53;5039464;28;20036;-72
2023/05/30 08:20:31;;;;;;;9.90;6.43;;;;;;;19.38;nan;100482.59;5056435;28;20082;-70
2023/05/30 08:22:56;;;;;;;12.63;6.72;;;;;;;19.42;nan;100473.75;5054458;28;20033;-70
2023/05/30 08:25:25;;;;;;;11.20;6.30;;;;;;;;;;5053908;28;20125;-72
2023/05/30 08:27:53;;;;;;;12.13;6.57;;;;;;;19.65;nan;100484.72;5054994;28;20044;-72
2023/05/30 08:30:19;;;;;;;13.18;7.25;;;;;;;19.71;nan;100537.09;5057594;28;20108;-70
2023/05/30 08:32:45;;;;;;;12.82;6.85;;;;;;;19.83;nan;100475.22;5058513;28;20112;-69
2023/05/30 08:35:10;;;;;;;16.23;6.82;;;;;;;19.84;nan;100444.75;5058615;28;20120;-71
2023/05/30 08:37:36;;;;;;;14.57;6.95;;;;;;;19.95;nan;100473.75;5059624;28;20167;-71
2023/05/30 08:40:01;;;;;;;12.45;7.32;;;;;;;;;;5039823;28;20097;-71
2023/05/30 08:42:26;;;;;;;12.57;7.07;;;;;;;20.02;nan;100417.25;5058553;28;20031;-72
2023/05/30 08:44:52;;;;;;;10.45;6.40;;;;;;;;;;5057438;28;20417;-69
2023/05/30 08:47:20;;;;;;;11.32;5.47;;;;;;;20.07;nan;100476.00;5042271;28;20389;-72
2023/05/30 08:49:47;;;;;;;11.38;5.20;;;;;;;20.11;nan;100525.16;5059190;28;20578;-70
2023/05/30 08:52:13;;;;;;;8.32;4.60;;;;;;;20.13;nan;100421.38;5040906;28;20032;-73
2023/05/30 08:54:49;;;;;;;6.60;4.32;;;;;;;20.18;nan;100501.53;5058326;28;20029;-73
2023/05/30 08:57:22;;;;;;;9.65;5.22;;;;;;;20.29;nan;100491.50;5059028;28;20182;-70
2023/05/30 08:59:49;;;;;;;6.47;5.13;;;;;;;;;;5059237;28;20103;-73
2023/05/30 09:02:15;;;;;;;11.52;5.78;;;;;;;20.44;nan;100460.28;5041782;28;20127;-75
2023/05/30 09:04:42;;;;;;;30.83;13.15;;;;;;;20.56;nan;100469.47;5059022;28;20048;-74
2023/05/30 09:07:07;;;;;;;18.83;8.05;;;;;;;20.64;nan;100448.50;5057044;28;20016;-75
2023/05/30 09:09:33;;;;;;;11.48;5.65;;;;;;;20.63;nan;100430.88;5043812;28;20032;-74
2023/05/30 09:11:59;;;;;;;10.10;5.53;;;;;;;20.86;nan;100467.44;5058620;28;20039;-74
2023/05/30 09:14:24;;;;;;;9.25;5.55;;;;;;;20.98;nan;100483.84;5042255;28;20497;-74
2023/05/30 09:16:50;;;;;;;10.02;5.28;;;;;;;21.04;nan;100495.25;5049410;28;20028;-74
2023/05/30 09:19:16;;;;;;;13.02;5.30;;;;;;;21.21;nan;100465.25;5058189;28;20228;-75
2023/05/30 09:21:41;;;;;;;9.18;5.43;;;;;;;21.28;nan;100479.06;5058156;28;20056;-74
2023/05/30 09:24:07;;;;;;;9.50;4.82;;;;;;;21.34;nan;100467.19;5048158;28;20033;-74
2023/05/30 09:26:32;;;;;;;10.73;5.35;;;;;;;21.42;nan;100463.84;5041648;28;20032;-74
2023/05/30 09:29:18;;;;;;;7.53;4.30;;;;;;;21.49;nan;100463.44;5054982;28;20021;-74
2023/05/30 09:31:44;;;;;;;8.77;4.90;;;;;;;;;;5056058;28;20041;-74
2023/05/30 09:34:17;;;;;;;6.68;4.60;;;;;;;21.63;nan;100456.22;5057111;28;20378;-75
2023/05/30 09:36:53;;;;;;;8.00;4.70;;;;;;;21.68;nan;100439.25;5041303;28;20024;-74
2023/05/30 09:39:18;;;;;;;10.43;5.18;;;;;;;21.73;nan;100454.44;5058067;28;20035;-74
2023/05/30 09:41:46;;;;;;;10.10;5.50;;;;;;;21.82;nan;100463.38;5057849;28;20032;-75
2023/05/30 09:44:12;;;;;;;9.05;6.47;;;;;;;21.84;nan;100475.38;5056462;28;20039;-74
2023/05/30 09:46:37;;;;;;;10.98;6.70;;;;;;;21.84;nan;100515.59;5059183;28;20070;-75
2023/05/30 09:49:13;;;;;;;10.82;6.38;;;;;;;21.97;nan;100451.53;5056422;28;20466;-74
2023/05/30 09:51:38;;;;;;;13.00;6.97;;;;;;;22.05;nan;100426.69;5057904;28;20155;-74
2023/05/30 09:54:05;;;;;;;14.07;8.00;;;;;;;22.15;nan;100461.34;5056469;28;20135;-74
2023/05/30 09:56:39;;;;;;;12.57;7.38;;;;;;;22.22;nan;100431.44;5057176;28;20565;-74
2023/05/30 09:59:07;;;;;;;15.73;7.25;;;;;;;22.25;nan;100482.63;5058709;28;20071;-74
2023/05/30 10:01:48;;;;;;;11.45;6.82;;;;;;;22.37;nan;100446.44;5055872;28;20029;-74
2023/05/30 10:04:16;;;;;;;12.50;6.20;;;;;;;22.40;nan;100478.81;5056830;28;20112;-75
2023/05/30 10:06:42;;;;;;;9.57;5.95;;;;;;;;;;5056245;28;20033;-74
2023/05/30 10:09:09;;;;;;;9.52;5.20;;;;;;;22.66;nan;100437.97;5054747;28;20029;-74
2023/05/30 10:11:37;;;;;;;7.85;5.00;;;;;;;22.67;nan;100435.00;5057330;28;20036;-74
2023/05/30 10:14:02;;;;;;;7.35;5.40;;;;;;;;;;5040812;28;20024;-74
2023/05/30 10:16:28;;;;;;;7.40;4.80;;;;;;;22.68;nan;100435.78;5037624;28;20029;-75
2023/05/30 10:18:59;;;;;;;8.88;4.82;;;;;;;22.75;nan;100409.28;5036608;28;20273;-74
2023/05/30 10:21:26;;;;;;;11.98;5.18;;;;;;;22.76;nan;100443.09;5057547;28;20103;-73
2023/05/30 10:23:55;;;;;;;6.82;4.90;;;;;;;22.73;nan;100425.69;5058794;28;20021;-75
2023/05/30 10:26:27;;;;;;;7.15;4.85;;;;;;;22.80;nan;100425.28;5058343;28;20032;-75
2023/05/30 10:28:54;;;;;;;8.95;4.80;;;;;;;22.83;nan;100423.88;5055408;28;20476;-75
2023/05/30 10:31:21;;;;;;;7.47;4.55;;;;;;;22.89;nan;100410.03;5045574;28;20089;-74
2023/05/30 10:33:49;;;;;;;7.10;4.40;;;;;;;23.01;nan;100430.16;5056690;28;20097;-74
2023/05/30 10:36:16;;;;;;;8.52;5.03;;;;;;;23.11;nan;100443.34;5046730;28;20945;-75
2023/05/30 10:39:02;;;;;;;6.22;4.68;;;;;;;;;;5038468;28;20035;-74
2023/05/30 10:41:45;;;;;;;8.52;4.70;;;;;;;23.16;nan;100445.91;5056410;28;20033;-74
2023/05/30 10:44:44;;;;;;;9.02;4.82;;;;;;;23.25;nan;100427.13;5057003;28;20028;-74
2023/05/30 10:47:31;;;;;;;6.15;4.72;;;;;;;23.25;nan;100427.13;5060546;28;20593;-75
2023/05/30 10:50:03;;;;;;;6.15;4.80;;;;;;;23.27;nan;100409.59;5056308;28;20055;-74
2023/05/30 10:52:32;;;;;;;8.85;5.20;;;;;;;23.43;nan;100420.72;5053299;28;20025;-74
2023/05/30 10:54:58;;;;;;;8.68;4.70;;;;;;;23.44;nan;100433.06;5057674;28;20013;-74
2023/05/30 10:57:31;;;;;;;5.38;4.07;;;;;;;23.56;nan;100384.88;5057281;28;20378;-75
2023/05/30 11:00:18;;;;;;;8.07;4.63;;;;;;;23.64;nan;100417.47;5042573;28;20538;-71
2023/05/30 11:02:53;;;;;;;6.85;4.75;;;;;;;23.83;nan;100420.72;5038635;28;20028;-72
2023/05/30 11:05:32;;;;;;;8.15;4.25;;;;;;;23.82;nan;100386.84;5038731;28;20077;-72
2023/05/30 11:08:00;;;;;;;;;;;;;;;23.91;nan;100427.22;5058335;28;20028;-74
2023/05/30 11:10:29;;;;;;;7.32;4.00;;;;;;;23.96;nan;100409.00;5056457;28;20285;-74
2023/05/30 11:13:14;;;;;;;6.30;4.28;;;;;;;24.00;nan;100419.94;5054359;28;20052;-74
2023/05/30 11:15:45;;;;;;;5.03;4.13;;;;;;;24.04;nan;100463.13;5057101;28;20542;-74
2023/05/30 11:18:18;;;;;;;7.00;5.03;;;;;;;24.10;nan;100416.94;5057003;28;20041;-74
2023/05/30 11:20:52;;;;;;;11.60;4.32;;;;;;;24.13;nan;100402.06;5055313;28;20029;-73
2023/05/30 11:23:17;;;;;;;10.02;4.75;;;;;;;24.13;nan;100386.72;5055042;28;20024;-74
2023/05/30 11:25:45;;;;;;;5.38;3.78;;;;;;;24.18;nan;100396.53;5039754;28;20033;-73
2023/05/30 11:28:15;;;;;;;6.93;4.15;;;;;;;23.99;nan;100391.44;5055097;28;20032;-73
2023/05/30 11:30:47;;;;;;;6.80;4.63;;;;;;;24.18;nan;100415.38;5058673;28;20039;-73
2023/05/30 11:33:13;;;;;;;6.95;4.72;;;;;;;24.17;nan;100398.44;5055713;28;20474;-73
2023/05/30 11:35:46;;;;;;;9.15;4.35;;;;;;;24.23;nan;100388.31;5057426;28;20497;-73
2023/05/30 11:38:18;;;;;;;5.72;4.43;;;;;;;24.24;nan;100389.13;5056038;28;20546;-73
2023/05/30 11:40:44;;;;;;;8.23;4.90;;;;;;;24.32;nan;100389.09;5054448;28;20493;-73
2023/05/30 11:43:09;;;;;;;6.72;4.38;;;;;;;24.41;nan;100427.56;5057882;28;20070;-73
2023/05/30 11:45:35;;;;;;;9.05;5.22;;;;;;;24.40;nan;100390.22;5055568;28;20028;-71
2023/05/30 11:48:08;;;;;;;10.98;4.80;;;;;;;24.48;nan;100377.88;5057494;28;20025;-73
2023/05/30 11:50:43;;;;;;;6.90;3.97;;;;;;;24.46;nan;100378.19;5039375;28;20029;-73
2023/05/30 11:53:18;;;;;;;6.60;4.70;;;;;;;24.42;nan;100366.44;5053733;28;20025;-72
2023/05/30 11:55:48;;;;;;;9.52;5.03;;;;;;;24.41;nan;100402.56;5056289;28;20064;-73
2023/05/30 11:58:18;;;;;;;9.57;5.50;;;;;;;24.26;nan;100368.06;5055273;28;20024;-74